createdAt,value
2018-07-20T00:00:35.290Z,63.90
2018-07-20T00:03:05.488Z,64.80
2018-07-20T00:05:35.890Z,66.87
2018-07-20T00:08:06.241Z,63.97
2018-07-20T00:10:36.423Z,66.43
2018-07-20T00:13:06.705Z,67.67
2018-07-20T00:15:37.057Z,65.60
2018-07-20T00:18:07.874Z,67.23
2018-07-20T00:20:38.377Z,68.23
2018-07-20T00:23:08.573Z,64.93
2018-07-20T00:25:39.028Z,62.03
2018-07-20T00:28:09.716Z,65.33
2018-07-20T00:30:39.912Z,65.50
2018-07-20T00:33:10.674Z,67.43
2018-07-20T00:35:41.015Z,69.97
2018-07-20T00:38:11.272Z,67.47
2018-07-20T00:40:41.613Z,67.33
2018-07-20T00:43:11.734Z,67.07
2018-07-20T00:45:41.818Z,65.90
2018-07-20T00:48:12.984Z,68.23
2018-07-20T00:50:43.404Z,66.70
2018-07-20T00:53:13.547Z,64.83
2018-07-20T00:55:43.925Z,66.07
2018-07-20T00:58:14.255Z,64.97
2018-07-20T01:00:44.980Z,67.50
2018-07-20T01:03:15.286Z,65.97
2018-07-20T01:05:45.932Z,63.70
2018-07-20T01:08:16.205Z,63.80
2018-07-20T01:10:46.642Z,65.00
2018-07-20T01:13:16.886Z,64.60
2018-07-20T01:15:46.923Z,65.23
2018-07-20T01:18:19.994Z,63.37
2018-07-20T01:20:51.006Z,66.63
2018-07-20T01:23:21.433Z,65.27
2018-07-20T01:25:51.648Z,63.90
2018-07-20T01:28:22.216Z,64.90
2018-07-20T01:30:52.432Z,63.97
2018-07-20T01:33:22.490Z,63.33
2018-07-20T01:35:52.529Z,66.40
2018-07-20T01:38:23.276Z,65.23
2018-07-20T01:40:53.501Z,65.77
2018-07-20T01:43:23.784Z,65.33
2018-07-20T01:45:54.458Z,63.53
2018-07-20T01:48:24.483Z,64.63
2018-07-20T01:50:55.572Z,62.40
2018-07-20T01:53:25.766Z,62.43
2018-07-20T01:55:56.625Z,65.60
2018-07-20T01:58:26.993Z,62.93
2018-07-20T02:00:57.099Z,62.50
2018-07-20T02:03:27.476Z,61.07
2018-07-20T02:05:57.627Z,63.63
2018-07-20T02:08:27.627Z,60.47
2018-07-20T02:10:59.890Z,66.10
2018-07-20T02:13:30.442Z,63.23
2018-07-20T02:16:00.573Z,66.30
2018-07-20T02:18:31.091Z,61.93
2018-07-20T02:21:01.702Z,61.57
2018-07-20T02:23:32.777Z,63.23
2018-07-20T02:26:03.006Z,63.73
2018-07-20T02:28:34.239Z,62.07
2018-07-20T02:31:05.253Z,63.20
2018-07-20T02:33:35.600Z,64.33
2018-07-20T02:36:06.016Z,62.27
2018-07-20T02:38:36.280Z,63.20
2018-07-20T02:41:13.114Z,63.90
2018-07-20T02:43:43.262Z,62.53
2018-07-20T02:46:13.637Z,64.47
2018-07-20T02:48:43.618Z,64.43
2018-07-20T02:51:14.493Z,64.17
2018-07-20T02:53:44.942Z,64.10
2018-07-20T02:56:15.274Z,63.57
2018-07-20T02:58:45.402Z,62.67
2018-07-20T03:01:15.929Z,95.77
2018-07-20T03:03:46.021Z,63.93
2018-07-20T03:06:16.051Z,63.47
2018-07-20T03:08:46.035Z,61.60
2018-07-20T03:11:16.689Z,60.87
2018-07-20T03:13:46.867Z,62.93
2018-07-20T03:16:17.661Z,62.30
2018-07-20T03:18:48.173Z,63.60
2018-07-20T03:21:18.340Z,64.53
2018-07-20T03:23:49.498Z,59.90
2018-07-20T03:26:19.685Z,60.97
2018-07-20T03:28:50.241Z,61.50
2018-07-20T03:31:23.496Z,62.50
2018-07-20T03:33:54.765Z,63.83
2018-07-20T03:36:25.210Z,61.40
2018-07-20T03:38:57.896Z,61.43
2018-07-20T03:41:30.122Z,62.50
2018-07-20T03:44:01.282Z,62.37
2018-07-20T03:46:32.493Z,60.13
2018-07-20T03:49:03.300Z,59.43
2018-07-20T03:51:33.171Z,58.93
2018-07-20T03:54:03.680Z,59.00
2018-07-20T03:56:34.278Z,62.17
2018-07-20T03:59:04.262Z,62.70
2018-07-20T04:01:34.767Z,61.77
2018-07-20T04:04:04.941Z,62.23
2018-07-20T04:06:36.193Z,63.20
2018-07-20T04:09:08.858Z,65.40
2018-07-20T04:11:39.216Z,63.60
2018-07-20T04:14:09.807Z,62.57
2018-07-20T04:16:39.788Z,61.20
2018-07-20T04:19:10.512Z,63.57
2018-07-20T04:21:40.719Z,61.30
2018-07-20T04:24:11.323Z,63.07
2018-07-20T04:26:42.927Z,65.00
2018-07-20T04:29:13.444Z,64.70
2018-07-20T04:31:43.602Z,64.43
2018-07-20T04:34:13.920Z,63.73
2018-07-20T04:36:44.130Z,63.03
2018-07-20T04:39:15.311Z,65.00
2018-07-20T04:41:45.492Z,66.60
2018-07-20T04:44:15.638Z,63.77
2018-07-20T04:46:46.413Z,63.30
2018-07-20T04:49:16.551Z,66.77
2018-07-20T04:51:46.619Z,63.93
2018-07-20T04:54:17.271Z,68.37
2018-07-20T04:56:47.494Z,67.50
2018-07-20T04:59:17.764Z,65.87
2018-07-20T05:01:47.902Z,65.70
2018-07-20T05:04:18.125Z,66.43
2018-07-20T05:06:50.357Z,66.53
2018-07-20T05:09:20.654Z,67.40
2018-07-20T05:11:50.987Z,64.77
2018-07-20T05:14:21.280Z,66.27
2018-07-20T05:16:51.830Z,64.73
2018-07-20T05:19:22.492Z,65.07
2018-07-20T05:21:53.010Z,68.80
2018-07-20T05:24:23.312Z,65.90
2018-07-20T05:26:53.684Z,65.77
2018-07-20T05:29:24.337Z,65.43
2018-07-20T05:31:55.277Z,63.47
2018-07-20T05:34:25.434Z,66.57
2018-07-20T05:36:55.553Z,68.40
2018-07-20T05:39:25.773Z,66.50
2018-07-20T05:41:56.867Z,67.87
2018-07-20T05:44:26.950Z,65.17
2018-07-20T05:46:57.092Z,65.17
2018-07-20T05:49:27.557Z,67.20
2018-07-20T05:51:57.757Z,65.63
2018-07-20T05:54:28.103Z,64.93
2018-07-20T05:56:58.537Z,67.57
2018-07-20T05:59:28.934Z,67.37
2018-07-20T06:01:59.122Z,66.13
2018-07-20T06:04:29.822Z,70.10
2018-07-20T06:07:00.254Z,64.90
2018-07-20T06:09:30.645Z,65.93
2018-07-20T06:12:01.141Z,66.80
2018-07-20T06:14:31.543Z,67.40
2018-07-20T06:17:01.879Z,68.27
2018-07-20T06:19:32.060Z,68.30
2018-07-20T06:22:03.346Z,66.03
2018-07-20T06:24:34.149Z,68.17
2018-07-20T06:27:04.369Z,64.93
2018-07-20T06:29:35.288Z,67.30
2018-07-20T06:32:06.012Z,68.83
2018-07-20T06:34:36.757Z,67.90
2018-07-20T06:37:07.266Z,67.87
2018-07-20T06:39:37.304Z,70.03
2018-07-20T06:42:07.854Z,68.03
2018-07-20T06:44:38.084Z,69.90
2018-07-20T06:47:08.941Z,68.60
2018-07-20T06:49:39.214Z,68.50
2018-07-20T06:52:09.312Z,67.80
2018-07-20T06:54:39.751Z,68.57
2018-07-20T06:57:09.814Z,66.40
2018-07-20T06:59:40.025Z,71.83
2018-07-20T07:02:11.602Z,69.20
2018-07-20T07:04:41.702Z,68.57
2018-07-20T07:07:12.514Z,70.33
2018-07-20T07:09:42.978Z,68.03
2018-07-20T07:12:14.169Z,69.73
2018-07-20T07:14:44.351Z,70.63
2018-07-20T07:17:15.286Z,68.10
2018-07-20T07:19:45.391Z,68.50
2018-07-20T07:22:15.808Z,68.50
2018-07-20T07:24:45.842Z,73.37
2018-07-20T07:27:16.180Z,69.30
2018-07-20T07:29:47.445Z,67.67
2018-07-20T07:32:17.874Z,70.67
2018-07-20T07:34:48.066Z,71.10
2018-07-20T07:37:18.146Z,73.03
2018-07-20T07:39:48.688Z,71.67
2018-07-20T07:42:18.861Z,71.73
2018-07-20T07:44:49.442Z,70.27
2018-07-20T07:47:19.658Z,70.70
2018-07-20T07:49:49.590Z,69.23
2018-07-20T07:52:20.457Z,72.00
2018-07-20T07:54:50.736Z,74.43
2018-07-20T07:57:21.290Z,71.67
2018-07-20T07:59:51.636Z,73.77
2018-07-20T08:02:21.999Z,72.30
2018-07-20T08:04:52.320Z,73.17
2018-07-20T08:07:22.512Z,71.37
2018-07-20T08:09:52.951Z,74.33
2018-07-20T08:12:23.156Z,72.30
2018-07-20T08:14:53.790Z,72.23
2018-07-20T08:17:24.594Z,73.67
2018-07-20T08:19:55.421Z,71.77
2018-07-20T08:22:25.815Z,73.40
2018-07-20T08:24:58.817Z,73.17
2018-07-20T08:27:28.773Z,73.80
2018-07-20T08:29:59.165Z,75.33
2018-07-20T08:32:29.573Z,78.37
2018-07-20T08:34:59.981Z,84.53
2018-07-20T08:37:30.230Z,91.37
2018-07-20T08:40:01.193Z,97.83
2018-07-20T08:42:31.429Z,77.10
2018-07-20T08:45:02.300Z,74.10
2018-07-20T08:47:32.896Z,73.57
2018-07-20T08:50:05.193Z,76.30
2018-07-20T08:52:35.585Z,83.07
2018-07-20T08:55:06.036Z,81.20
2018-07-20T08:57:36.107Z,77.00
2018-07-20T09:00:07.648Z,73.87
2018-07-20T09:02:38.282Z,79.30
2018-07-20T09:05:08.429Z,81.10
2018-07-20T09:07:38.454Z,79.27
2018-07-20T09:10:09.350Z,75.20
2018-07-20T09:12:39.559Z,76.53
2018-07-20T09:15:09.974Z,79.33
2018-07-20T09:17:40.413Z,84.20
2018-07-20T09:20:11.190Z,77.47
2018-07-20T09:22:41.353Z,76.03
2018-07-20T09:25:11.844Z,78.17
2018-07-20T09:27:42.247Z,77.80
2018-07-20T09:30:12.393Z,76.13
2018-07-20T09:32:43.079Z,77.33
2018-07-20T09:35:13.148Z,76.77
2018-07-20T09:37:43.647Z,77.17
2018-07-20T09:40:13.880Z,78.63
2018-07-20T09:42:44.967Z,74.87
2018-07-20T09:45:15.186Z,78.23
2018-07-20T09:47:45.536Z,77.80
2018-07-20T09:50:17.110Z,76.13
2018-07-20T09:52:47.266Z,78.13
2018-07-20T09:55:17.586Z,80.10
2018-07-20T09:57:49.154Z,74.03
2018-07-20T10:00:24.266Z,82.73
2018-07-20T10:02:55.009Z,75.80
2018-07-20T10:05:25.453Z,74.67
2018-07-20T10:07:56.322Z,76.03
2018-07-20T10:10:26.544Z,76.97
2018-07-20T10:12:59.728Z,80.97
2018-07-20T10:15:30.245Z,75.57
2018-07-20T10:18:00.396Z,82.20
2018-07-20T10:20:30.688Z,73.90
2018-07-20T10:23:01.682Z,76.10
2018-07-20T10:25:32.515Z,78.57
2018-07-20T10:28:03.106Z,76.53
2018-07-20T10:30:33.380Z,75.17
2018-07-20T10:33:03.807Z,78.40
2018-07-20T10:35:33.779Z,80.40
2018-07-20T10:38:04.190Z,81.70
2018-07-20T10:40:34.698Z,81.90
2018-07-20T10:43:04.994Z,78.17
2018-07-20T10:45:34.971Z,76.37
2018-07-20T10:48:05.782Z,79.77
2018-07-20T10:50:36.444Z,78.67
2018-07-20T10:53:06.669Z,78.23
2018-07-20T10:55:37.008Z,77.27
2018-07-20T10:58:08.101Z,73.57
2018-07-20T11:00:38.048Z,153.47
2018-07-20T11:03:08.254Z,74.30
2018-07-20T11:05:38.828Z,75.13
2018-07-20T11:08:09.671Z,76.63
2018-07-20T11:10:41.029Z,74.33
2018-07-20T11:13:11.448Z,75.33
2018-07-20T11:15:42.603Z,76.03
2018-07-20T11:18:13.223Z,78.33
2018-07-20T11:20:43.993Z,74.23
2018-07-20T11:23:14.266Z,84.03
2018-07-20T11:25:45.053Z,75.47
2018-07-20T11:28:15.278Z,73.77
2018-07-20T11:30:45.524Z,76.13
2018-07-20T11:33:16.017Z,75.03
2018-07-20T11:35:52.707Z,77.67
2018-07-20T11:38:23.352Z,79.50
2018-07-20T11:40:53.784Z,76.03
2018-07-20T11:43:24.225Z,78.77
2018-07-20T11:45:54.582Z,74.80
2018-07-20T11:48:24.771Z,79.30
2018-07-20T11:50:55.229Z,77.80
2018-07-20T11:53:25.419Z,81.10
2018-07-20T11:55:55.892Z,76.30
2018-07-20T11:58:25.819Z,78.37
2018-07-20T12:00:56.097Z,77.13
2018-07-20T12:03:26.674Z,80.40
2018-07-20T12:05:56.955Z,77.00
2018-07-20T12:08:27.008Z,77.47
2018-07-20T12:10:57.117Z,75.93
2018-07-20T12:13:27.412Z,75.83
2018-07-20T12:15:57.479Z,78.23
2018-07-20T12:18:28.930Z,79.90
2018-07-20T12:20:59.196Z,78.80
2018-07-20T12:23:30.010Z,80.40
2018-07-20T12:26:00.752Z,77.63
2018-07-20T12:28:32.938Z,80.20
2018-07-20T12:31:03.631Z,79.73
2018-07-20T12:33:34.127Z,76.30
2018-07-20T12:36:04.096Z,76.17
2018-07-20T12:38:34.505Z,82.03
2018-07-20T12:41:04.689Z,79.77
2018-07-20T12:43:34.885Z,78.43
2018-07-20T12:46:05.190Z,82.00
2018-07-20T12:48:35.649Z,82.17
2018-07-20T12:51:06.139Z,78.23
2018-07-20T12:53:36.928Z,81.67
2018-07-20T12:56:07.377Z,83.63
2018-07-20T12:58:37.754Z,82.13
2018-07-20T13:01:08.901Z,81.90
2018-07-20T13:03:39.117Z,77.13
2018-07-20T13:06:09.569Z,81.10
2018-07-20T13:08:40.206Z,85.23
2018-07-20T13:11:10.305Z,83.47
2018-07-20T13:13:40.731Z,83.93
2018-07-20T13:16:10.844Z,80.23
2018-07-20T13:18:41.737Z,80.30
2018-07-20T13:21:12.768Z,78.23
2018-07-20T13:23:43.052Z,80.97
2018-07-20T13:26:13.489Z,80.83
2018-07-20T13:28:43.861Z,79.73
2018-07-20T13:31:14.110Z,79.53
2018-07-20T13:33:45.330Z,81.23
2018-07-20T13:36:16.211Z,80.07
2018-07-20T13:38:46.523Z,79.37
2018-07-20T13:41:17.046Z,79.07
2018-07-20T13:43:47.329Z,76.77
2018-07-20T13:46:17.686Z,78.10
2018-07-20T13:48:48.151Z,82.77
2018-07-20T13:51:18.836Z,78.53
2018-07-20T13:53:49.083Z,79.70
2018-07-20T13:56:19.360Z,79.23
2018-07-20T13:58:49.674Z,81.23
2018-07-20T14:01:19.864Z,78.87
2018-07-20T14:03:49.869Z,76.47
2018-07-20T14:06:22.178Z,79.43
2018-07-20T14:08:53.054Z,80.97
2018-07-20T14:11:23.716Z,79.60
2018-07-20T14:13:54.013Z,79.90
2018-07-20T14:16:24.508Z,77.03
2018-07-20T14:18:54.835Z,81.50
2018-07-20T14:21:25.207Z,83.70
2018-07-20T14:23:55.651Z,82.10
2018-07-20T14:26:29.148Z,76.57
2018-07-20T14:28:59.219Z,77.17
2018-07-20T14:31:29.533Z,78.83
2018-07-20T14:33:59.979Z,83.47
2018-07-20T14:36:30.194Z,81.03
2018-07-20T14:39:00.424Z,81.17
2018-07-20T14:41:31.149Z,79.60
2018-07-20T14:44:01.515Z,74.40
2018-07-20T14:46:31.790Z,79.07
2018-07-20T14:49:01.919Z,77.83
2018-07-20T14:51:32.463Z,79.17
2018-07-20T14:54:03.054Z,81.13
2018-07-20T14:56:33.149Z,74.63
2018-07-20T14:59:03.580Z,78.67
2018-07-20T15:01:33.482Z,82.17
2018-07-20T15:04:03.792Z,80.10
2018-07-20T15:06:34.501Z,76.80
2018-07-20T15:09:07.535Z,75.23
2018-07-20T15:11:37.455Z,75.77
2018-07-20T15:14:08.115Z,75.23
2018-07-20T15:16:38.350Z,76.53
2018-07-20T15:19:08.892Z,76.57
2018-07-20T15:21:39.448Z,77.47
2018-07-20T15:24:10.274Z,76.53
2018-07-20T15:26:40.555Z,75.33
2018-07-20T15:29:12.337Z,76.03
2018-07-20T15:31:43.070Z,77.00
2018-07-20T15:34:14.851Z,76.93
2018-07-20T15:36:46.304Z,74.70
2018-07-20T15:39:16.502Z,74.00
2018-07-20T15:41:47.369Z,78.07
2018-07-20T15:44:17.618Z,76.90
2018-07-20T15:46:48.083Z,76.90
2018-07-20T15:49:18.692Z,81.20
2018-07-20T15:53:35.610Z,82.50
2018-07-20T15:54:21.575Z,84.43
2018-07-20T15:56:55.453Z,79.57
2018-07-20T15:59:25.683Z,79.63
2018-07-20T16:01:56.453Z,79.33
2018-07-20T16:04:27.208Z,79.33
2018-07-20T16:06:59.337Z,84.27
2018-07-20T16:09:30.088Z,76.43
2018-07-20T16:12:01.428Z,76.97
2018-07-20T16:14:31.546Z,75.30
2018-07-20T16:17:01.957Z,76.87
2018-07-20T16:19:33.092Z,76.80
2018-07-20T16:22:03.370Z,78.03
2018-07-20T16:24:33.908Z,81.63
2018-07-20T16:27:04.595Z,78.53
2018-07-20T16:29:38.376Z,77.10
2018-07-20T16:32:09.049Z,78.17
2018-07-20T16:34:39.312Z,76.70
2018-07-20T16:37:09.439Z,78.37
2018-07-20T16:39:39.883Z,75.83
2018-07-20T16:42:10.442Z,78.60
2018-07-20T16:44:40.691Z,79.93
2018-07-20T16:47:11.320Z,75.10
2018-07-20T16:49:41.395Z,76.30
2018-07-20T16:52:13.914Z,76.30
2018-07-20T16:54:44.622Z,71.20
2018-07-20T16:57:14.832Z,74.37
2018-07-20T16:59:45.508Z,70.73
2018-07-20T17:02:15.612Z,76.07
2018-07-20T17:04:45.917Z,74.50
2018-07-20T17:07:16.143Z,71.60
2018-07-20T17:09:47.597Z,70.03
2018-07-20T17:12:17.804Z,71.17
2018-07-20T17:14:48.041Z,71.70
2018-07-20T17:17:18.245Z,73.20
2018-07-20T17:19:48.722Z,73.33
2018-07-20T17:22:19.088Z,70.50
2018-07-20T17:24:50.672Z,76.73
2018-07-20T17:27:21.174Z,70.90
2018-07-20T17:29:51.973Z,71.43
2018-07-20T17:32:23.144Z,74.73
2018-07-20T17:34:53.206Z,70.87
2018-07-20T17:37:23.624Z,72.23
2018-07-20T17:39:53.881Z,69.60
2018-07-20T17:42:24.755Z,71.50
2018-07-20T17:44:55.514Z,75.40
2018-07-20T17:47:25.897Z,69.00
2018-07-20T17:49:57.875Z,67.87
2018-07-20T17:52:28.906Z,67.93
2018-07-20T17:54:59.937Z,67.67
2018-07-20T17:57:31.048Z,71.37
2018-07-20T18:00:01.225Z,75.77
2018-07-20T18:02:31.544Z,73.33
2018-07-20T18:05:02.022Z,72.30
2018-07-20T18:07:32.132Z,71.13
2018-07-20T18:10:03.036Z,70.97
2018-07-20T18:12:33.302Z,73.27
2018-07-20T18:15:03.794Z,72.30
2018-07-20T18:17:33.985Z,72.50
2018-07-20T18:20:04.497Z,71.13
2018-07-20T18:22:34.842Z,73.07
2018-07-20T18:25:05.739Z,68.10
2018-07-20T18:27:36.343Z,70.33
2018-07-20T18:30:10.369Z,70.17
2018-07-20T18:32:41.460Z,73.60
2018-07-20T18:35:11.769Z,69.93
2018-07-20T18:37:42.078Z,70.70
2018-07-20T18:40:12.183Z,70.63
2018-07-20T18:42:45.428Z,69.70
2018-07-20T18:45:16.138Z,69.10
2018-07-20T18:47:46.196Z,69.20
2018-07-20T18:50:16.620Z,71.77
2018-07-20T18:52:47.243Z,71.27
2018-07-20T18:55:17.823Z,67.97
2018-07-20T18:57:55.924Z,66.97
2018-07-20T19:00:26.061Z,66.77
2018-07-20T19:02:56.012Z,66.27
2018-07-20T19:05:26.202Z,68.33
2018-07-20T19:07:56.299Z,67.13
2018-07-20T19:10:26.446Z,68.70
2018-07-20T19:12:56.950Z,67.60
2018-07-20T19:15:27.585Z,66.70
2018-07-20T19:17:57.674Z,64.00
2018-07-20T19:20:28.727Z,66.77
2018-07-20T19:22:59.786Z,66.70
2018-07-20T19:25:30.047Z,67.23
2018-07-20T19:28:00.486Z,68.00
2018-07-20T19:30:30.740Z,64.87
2018-07-20T19:33:01.009Z,67.40
2018-07-20T19:35:31.148Z,73.87
2018-07-20T19:38:01.206Z,66.43
2018-07-20T19:40:31.619Z,69.17
2018-07-20T19:43:02.225Z,68.00
2018-07-20T19:45:32.532Z,65.63
2018-07-20T19:48:02.614Z,67.20
2018-07-20T19:50:33.102Z,67.67
2018-07-20T19:53:03.337Z,65.50
2018-07-20T19:55:33.528Z,64.73
2018-07-20T19:58:03.782Z,67.73
2018-07-20T20:00:34.330Z,67.30
2018-07-20T20:03:04.572Z,67.00
2018-07-20T20:05:34.764Z,66.10
2018-07-20T20:08:05.609Z,67.57
2018-07-20T20:10:35.709Z,67.33
2018-07-20T20:13:06.635Z,68.30
2018-07-20T20:15:37.025Z,69.30
2018-07-20T20:18:08.365Z,67.97
2018-07-20T20:20:38.671Z,66.13
2018-07-20T20:23:08.437Z,65.80
2018-07-20T20:25:39.287Z,66.67
2018-07-20T20:28:09.700Z,65.63
2018-07-20T20:30:41.315Z,64.87
2018-07-20T20:33:12.409Z,67.03
2018-07-20T20:35:42.608Z,66.80
2018-07-20T20:38:12.916Z,65.87
2018-07-20T20:40:43.142Z,68.87
2018-07-20T20:43:13.933Z,68.00
2018-07-20T20:45:44.197Z,69.47
2018-07-20T20:48:15.885Z,66.07
2018-07-20T20:50:46.761Z,65.73
2018-07-20T20:53:17.017Z,67.53
2018-07-20T20:55:47.239Z,66.50
2018-07-20T20:58:17.519Z,65.97
2018-07-20T21:00:47.718Z,66.40
2018-07-20T21:03:18.485Z,68.37
2018-07-20T21:05:49.600Z,68.20
2018-07-20T21:08:19.887Z,65.73
2018-07-20T21:10:50.506Z,67.03
2018-07-20T21:13:20.576Z,68.23
2018-07-20T21:15:50.986Z,67.20
2018-07-20T21:18:21.125Z,67.67
2018-07-20T21:20:51.576Z,67.03
2018-07-20T21:23:24.180Z,67.40
2018-07-20T21:25:54.427Z,70.67
2018-07-20T21:28:25.680Z,67.17
2018-07-20T21:30:55.933Z,67.90
2018-07-20T21:33:30.355Z,65.37
2018-07-20T21:36:00.956Z,69.97
2018-07-20T21:38:31.148Z,67.80
2018-07-20T21:41:01.400Z,67.73
2018-07-20T21:43:32.391Z,66.07
2018-07-20T21:46:04.948Z,63.53
2018-07-20T21:48:35.766Z,67.17
2018-07-20T21:51:07.108Z,68.27
2018-07-20T21:53:37.564Z,67.07
2018-07-20T21:56:09.004Z,68.07
2018-07-20T21:58:39.737Z,64.27
2018-07-20T22:01:10.157Z,65.77
2018-07-20T22:03:40.830Z,66.63
2018-07-20T22:06:10.983Z,67.30
2018-07-20T22:08:41.228Z,65.57
2018-07-20T22:11:15.477Z,70.43
2018-07-20T22:13:50.887Z,66.07
2018-07-20T22:16:37.892Z,66.23
2018-07-20T22:19:08.195Z,65.20
2018-07-20T22:21:38.474Z,63.73
2018-07-20T22:24:25.479Z,64.27
2018-07-20T22:27:03.391Z,66.70
2018-07-20T22:29:45.742Z,63.43
2018-07-20T22:32:25.668Z,63.40
2018-07-20T22:38:18.551Z,66.43
2018-07-20T22:40:51.589Z,66.17
2018-07-20T22:43:21.719Z,64.90
2018-07-20T22:45:51.796Z,64.30
2018-07-20T22:48:28.409Z,63.80
2018-07-20T22:50:59.104Z,64.03
2018-07-20T22:53:29.344Z,65.53
2018-07-20T22:55:59.343Z,64.70
2018-07-20T22:58:29.691Z,65.63
2018-07-20T23:01:01.478Z,91.30
2018-07-20T23:03:33.786Z,65.17
2018-07-20T23:06:04.028Z,63.83
2018-07-20T23:08:34.293Z,65.07
2018-07-20T23:11:06.959Z,63.63
2018-07-20T23:13:39.857Z,64.33
2018-07-20T23:16:10.394Z,65.10
2018-07-20T23:18:40.779Z,65.67
2018-07-20T23:21:11.803Z,64.43
2018-07-20T23:23:42.205Z,64.90
2018-07-20T23:26:12.888Z,65.00
2018-07-20T23:28:45.114Z,65.57
2018-07-20T23:31:15.489Z,66.27
2018-07-20T23:33:46.077Z,66.30
2018-07-20T23:36:16.611Z,63.97
2018-07-20T23:38:47.061Z,65.17
2018-07-20T23:41:17.702Z,65.27
2018-07-20T23:43:48.245Z,65.17
2018-07-20T23:46:20.076Z,66.17
2018-07-20T23:48:50.969Z,62.77
2018-07-20T23:51:21.261Z,63.07
2018-07-20T23:53:52.049Z,65.20
2018-07-20T23:56:23.058Z,67.07
2018-07-20T23:58:53.470Z,68.77
